グアダラハラ の空港の天気 - METARとTAF

ドン・ミゲル・イダルゴ・イ・コスティージャ国際空港 ( MMGL / GDL ) - メキシコ ハリスコ州グアダラハラ
飛行場実況気象(Metar)
観測時間01/22 21:44 CST (01/23 03:44 UTC)
風向・風速静穏 0m/s
視程10km以上
天気現象
全天の4割程度の雲 雲底高度 2440m
全天の8割程度の雲 雲底高度 9140m
気温15℃
湿度33%
気圧1020hPa
METARMMGL 230344Z 00000KT 8SM SCT080 BKN300 15/M01 A3013 RMK 8/038
過去の天気等 Google飛行場航空写真 Wunderground天気予報

過去48時間のMETAR

飛行場予報(TAF)
発表時間: 1/22 17:02 CST (1/22 23:02 UTC)
予報対象時間: 22日18時 CST ~ 24日0時 CST
風向・風速西北西 5m/s
視程10km以上
全天の4割程度の雲 雲底高度 2,440m
全天の8割程度の雲 雲底高度 9,140m
23日2時 CST ~ 23日3時 CST に徐々に
風向・風速静穏
23日12時 CST から
風向・風速南 5m/s
視程10km以上
全天の8割程度の雲 雲底高度 9,140m
23日19時 CST ~ 23日20時 CST に徐々に
風向・風速西南西 5m/s
TAF MMGL 222302Z 2300/2406 30010KT P6SM SCT080 BKN300 TX25/2322Z TN06/2312Z
BECMG 2308/2309 00000KT
FM231800 18010KT P6SM BKN300
BECMG 2401/2402 24010KT